sensor_id;sensor_type;location;lat;lon;timestamp;P1;durP1;ratioP1;P2;durP2;ratioP2
23123;SDS011;11731;48.592;8.858;2024-01-27T00:01:01;4.00;;;1.70;;
23123;SDS011;11731;48.592;8.858;2024-01-27T00:03:37;3.30;;;1.57;;
23123;SDS011;11731;48.592;8.858;2024-01-27T00:06:04;4.33;;;1.57;;
23123;SDS011;11731;48.592;8.858;2024-01-27T00:08:34;2.10;;;1.50;;
23123;SDS011;11731;48.592;8.858;2024-01-27T00:14:19;1.97;;;1.53;;
23123;SDS011;11731;48.592;8.858;2024-01-27T00:25:50;3.27;;;1.47;;
23123;SDS011;11731;48.592;8.858;2024-01-27T00:28:18;1.40;;;1.30;;
23123;SDS011;11731;48.592;8.858;2024-01-27T00:30:59;3.23;;;1.30;;
23123;SDS011;11731;48.592;8.858;2024-01-27T00:33:31;6.53;;;2.03;;
23123;SDS011;11731;48.592;8.858;2024-01-27T00:43:14;2.77;;;1.73;;
23123;SDS011;11731;48.592;8.858;2024-01-27T00:45:44;2.93;;;1.40;;
23123;SDS011;11731;48.592;8.858;2024-01-27T00:51:15;3.50;;;1.97;;
23123;SDS011;11731;48.592;8.858;2024-01-27T00:53:42;3.33;;;1.60;;
23123;SDS011;11731;48.592;8.858;2024-01-27T00:56:09;2.67;;;1.60;;
23123;SDS011;11731;48.592;8.858;2024-01-27T00:58:53;2.93;;;1.57;;
23123;SDS011;11731;48.592;8.858;2024-01-27T01:01:27;4.17;;;1.40;;
23123;SDS011;11731;48.592;8.858;2024-01-27T01:07:30;1.97;;;1.60;;
23123;SDS011;11731;48.592;8.858;2024-01-27T01:10:03;2.17;;;1.47;;
23123;SDS011;11731;48.592;8.858;2024-01-27T01:35:49;3.43;;;1.73;;
23123;SDS011;11731;48.592;8.858;2024-01-27T01:38:22;2.77;;;1.60;;
23123;SDS011;11731;48.592;8.858;2024-01-27T01:48:14;2.60;;;1.67;;
23123;SDS011;11731;48.592;8.858;2024-01-27T02:09:29;5.73;;;2.20;;
23123;SDS011;11731;48.592;8.858;2024-01-27T02:11:46;2.77;;;1.80;;
23123;SDS011;11731;48.592;8.858;2024-01-27T02:14:13;3.97;;;1.73;;
23123;SDS011;11731;48.592;8.858;2024-01-27T02:16:42;2.53;;;1.70;;
23123;SDS011;11731;48.592;8.858;2024-01-27T02:19:09;3.07;;;1.83;;
23123;SDS011;11731;48.592;8.858;2024-01-27T02:24:23;4.63;;;2.40;;
23123;SDS011;11731;48.592;8.858;2024-01-27T02:27:00;3.30;;;1.80;;
23123;SDS011;11731;48.592;8.858;2024-01-27T02:29:36;6.87;;;2.20;;
23123;SDS011;11731;48.592;8.858;2024-01-27T02:35:19;5.30;;;1.90;;
23123;SDS011;11731;48.592;8.858;2024-01-27T02:41:04;4.03;;;2.00;;
23123;SDS011;11731;48.592;8.858;2024-01-27T02:43:31;2.77;;;2.00;;
23123;SDS011;11731;48.592;8.858;2024-01-27T02:45:57;4.57;;;1.97;;
23123;SDS011;11731;48.592;8.858;2024-01-27T02:48:26;7.07;;;2.00;;
23123;SDS011;11731;48.592;8.858;2024-01-27T02:51:45;3.77;;;1.93;;
23123;SDS011;11731;48.592;8.858;2024-01-27T02:54:37;4.90;;;2.30;;
23123;SDS011;11731;48.592;8.858;2024-01-27T02:57:06;3.73;;;2.10;;
23123;SDS011;11731;48.592;8.858;2024-01-27T02:59:33;5.60;;;1.93;;
23123;SDS011;11731;48.592;8.858;2024-01-27T03:02:00;3.67;;;2.33;;
23123;SDS011;11731;48.592;8.858;2024-01-27T03:07:10;3.53;;;2.10;;
23123;SDS011;11731;48.592;8.858;2024-01-27T03:09:42;4.10;;;2.60;;
23123;SDS011;11731;48.592;8.858;2024-01-27T03:19:13;5.73;;;2.10;;
23123;SDS011;11731;48.592;8.858;2024-01-27T03:21:40;3.47;;;1.90;;
23123;SDS011;11731;48.592;8.858;2024-01-27T03:24:07;2.83;;;1.90;;
23123;SDS011;11731;48.592;8.858;2024-01-27T03:26:34;4.77;;;2.20;;
23123;SDS011;11731;48.592;8.858;2024-01-27T03:29:03;8.20;;;2.97;;
23123;SDS011;11731;48.592;8.858;2024-01-27T03:35:06;3.23;;;2.10;;
23123;SDS011;11731;48.592;8.858;2024-01-27T03:37:42;2.53;;;2.10;;
23123;SDS011;11731;48.592;8.858;2024-01-27T03:40:36;5.83;;;1.73;;
23123;SDS011;11731;48.592;8.858;2024-01-27T03:43:52;2.73;;;1.90;;
23123;SDS011;11731;48.592;8.858;2024-01-27T03:46:55;3.70;;;2.00;;
23123;SDS011;11731;48.592;8.858;2024-01-27T03:49:22;2.97;;;2.13;;
23123;SDS011;11731;48.592;8.858;2024-01-27T04:00:23;3.77;;;2.00;;
23123;SDS011;11731;48.592;8.858;2024-01-27T04:02:52;4.83;;;2.03;;
23123;SDS011;11731;48.592;8.858;2024-01-27T04:05:43;2.87;;;1.80;;
23123;SDS011;11731;48.592;8.858;2024-01-27T04:15:41;3.30;;;1.83;;
23123;SDS011;11731;48.592;8.858;2024-01-27T04:24:13;3.37;;;2.20;;
23123;SDS011;11731;48.592;8.858;2024-01-27T04:29:27;3.87;;;1.77;;
23123;SDS011;11731;48.592;8.858;2024-01-27T04:31:55;2.47;;;2.00;;
23123;SDS011;11731;48.592;8.858;2024-01-27T04:35:22;5.73;;;1.70;;
23123;SDS011;11731;48.592;8.858;2024-01-27T04:37:49;4.77;;;2.10;;
23123;SDS011;11731;48.592;8.858;2024-01-27T04:43:40;3.53;;;1.70;;
23123;SDS011;11731;48.592;8.858;2024-01-27T04:49:40;4.30;;;1.60;;
23123;SDS011;11731;48.592;8.858;2024-01-27T04:52:11;6.57;;;2.00;;
23123;SDS011;11731;48.592;8.858;2024-01-27T04:54:38;4.33;;;1.90;;
23123;SDS011;11731;48.592;8.858;2024-01-27T04:57:07;3.83;;;2.20;;
23123;SDS011;11731;48.592;8.858;2024-01-27T05:09:47;3.83;;;2.17;;
23123;SDS011;11731;48.592;8.858;2024-01-27T05:37:59;4.03;;;1.80;;
23123;SDS011;11731;48.592;8.858;2024-01-27T05:46:33;5.37;;;2.90;;
23123;SDS011;11731;48.592;8.858;2024-01-27T05:48:59;2.53;;;2.13;;
23123;SDS011;11731;48.592;8.858;2024-01-27T05:51:28;8.70;;;2.80;;
23123;SDS011;11731;48.592;8.858;2024-01-27T06:00:12;3.60;;;2.07;;
23123;SDS011;11731;48.592;8.858;2024-01-27T06:02:39;5.10;;;2.50;;
23123;SDS011;11731;48.592;8.858;2024-01-27T06:05:13;9.43;;;4.07;;
23123;SDS011;11731;48.592;8.858;2024-01-27T06:11:43;5.07;;;2.90;;
23123;SDS011;11731;48.592;8.858;2024-01-27T06:14:24;6.43;;;4.10;;
23123;SDS011;11731;48.592;8.858;2024-01-27T06:38:20;3.67;;;2.77;;
23123;SDS011;11731;48.592;8.858;2024-01-27T06:40:52;7.90;;;2.40;;
23123;SDS011;11731;48.592;8.858;2024-01-27T06:51:54;4.33;;;2.70;;
23123;SDS011;11731;48.592;8.858;2024-01-27T06:54:25;3.63;;;2.43;;
23123;SDS011;11731;48.592;8.858;2024-01-27T07:19:00;4.43;;;2.80;;
23123;SDS011;11731;48.592;8.858;2024-01-27T07:27:56;8.03;;;3.13;;
23123;SDS011;11731;48.592;8.858;2024-01-27T07:30:23;5.33;;;3.00;;
23123;SDS011;11731;48.592;8.858;2024-01-27T07:32:51;3.37;;;2.43;;
23123;SDS011;11731;48.592;8.858;2024-01-27T07:35:18;6.67;;;3.37;;
23123;SDS011;11731;48.592;8.858;2024-01-27T07:41:10;6.00;;;3.20;;
23123;SDS011;11731;48.592;8.858;2024-01-27T07:52:53;5.83;;;3.60;;
23123;SDS011;11731;48.592;8.858;2024-01-27T07:55:20;7.20;;;3.57;;
23123;SDS011;11731;48.592;8.858;2024-01-27T08:00:26;7.43;;;3.40;;
23123;SDS011;11731;48.592;8.858;2024-01-27T08:00:51;3.43;;;2.60;;
23123;SDS011;11731;48.592;8.858;2024-01-27T08:03:18;7.30;;;2.93;;
23123;SDS011;11731;48.592;8.858;2024-01-27T08:05:45;3.90;;;2.90;;
23123;SDS011;11731;48.592;8.858;2024-01-27T08:08:13;5.27;;;2.90;;
23123;SDS011;11731;48.592;8.858;2024-01-27T08:10:42;4.23;;;2.90;;
23123;SDS011;11731;48.592;8.858;2024-01-27T08:20:53;8.87;;;5.00;;
23123;SDS011;11731;48.592;8.858;2024-01-27T08:23:16;9.03;;;4.73;;
23123;SDS011;11731;48.592;8.858;2024-01-27T08:29:33;6.20;;;3.93;;
23123;SDS011;11731;48.592;8.858;2024-01-27T08:32:00;5.23;;;3.93;;
23123;SDS011;11731;48.592;8.858;2024-01-27T08:34:40;8.17;;;3.13;;
23123;SDS011;11731;48.592;8.858;2024-01-27T08:40:39;11.13;;;4.47;;
23123;SDS011;11731;48.592;8.858;2024-01-27T08:43:14;6.03;;;4.20;;
23123;SDS011;11731;48.592;8.858;2024-01-27T08:57:39;6.60;;;4.20;;
23123;SDS011;11731;48.592;8.858;2024-01-27T09:01:28;5.43;;;3.80;;
23123;SDS011;11731;48.592;8.858;2024-01-27T09:05:50;6.10;;;4.00;;
23123;SDS011;11731;48.592;8.858;2024-01-27T09:08:56;5.50;;;3.47;;
23123;SDS011;11731;48.592;8.858;2024-01-27T09:17:57;4.77;;;3.57;;
23123;SDS011;11731;48.592;8.858;2024-01-27T09:22:34;5.13;;;3.70;;
23123;SDS011;11731;48.592;8.858;2024-01-27T09:25:53;6.47;;;3.83;;
23123;SDS011;11731;48.592;8.858;2024-01-27T09:27:17;6.17;;;3.90;;
23123;SDS011;11731;48.592;8.858;2024-01-27T09:29:44;9.43;;;4.57;;
23123;SDS011;11731;48.592;8.858;2024-01-27T10:07:07;4.87;;;3.80;;
23123;SDS011;11731;48.592;8.858;2024-01-27T10:09:35;5.93;;;3.90;;
23123;SDS011;11731;48.592;8.858;2024-01-27T10:15:20;8.93;;;4.17;;
23123;SDS011;11731;48.592;8.858;2024-01-27T10:18:04;4.93;;;3.40;;
23123;SDS011;11731;48.592;8.858;2024-01-27T10:20:31;7.13;;;3.23;;
23123;SDS011;11731;48.592;8.858;2024-01-27T10:25:45;3.33;;;3.03;;
23123;SDS011;11731;48.592;8.858;2024-01-27T10:28:12;3.87;;;3.00;;
23123;SDS011;11731;48.592;8.858;2024-01-27T10:48:52;10.77;;;3.67;;
23123;SDS011;11731;48.592;8.858;2024-01-27T10:57:58;4.87;;;3.93;;
23123;SDS011;11731;48.592;8.858;2024-01-27T11:00:29;7.70;;;4.10;;
23123;SDS011;11731;48.592;8.858;2024-01-27T11:03:03;5.13;;;3.70;;
23123;SDS011;11731;48.592;8.858;2024-01-27T11:18:42;7.53;;;4.23;;
23123;SDS011;11731;48.592;8.858;2024-01-27T11:37:20;10.97;;;5.00;;
23123;SDS011;11731;48.592;8.858;2024-01-27T11:39:50;12.10;;;5.50;;
23123;SDS011;11731;48.592;8.858;2024-01-27T11:42:32;6.17;;;3.87;;
23123;SDS011;11731;48.592;8.858;2024-01-27T11:51:37;5.33;;;3.47;;
23123;SDS011;11731;48.592;8.858;2024-01-27T11:54:04;5.03;;;3.30;;
23123;SDS011;11731;48.592;8.858;2024-01-27T11:56:57;5.03;;;3.93;;
23123;SDS011;11731;48.592;8.858;2024-01-27T12:02:50;5.83;;;3.97;;
23123;SDS011;11731;48.592;8.858;2024-01-27T12:09:22;5.50;;;3.97;;
23123;SDS011;11731;48.592;8.858;2024-01-27T12:23:06;8.67;;;4.97;;
23123;SDS011;11731;48.592;8.858;2024-01-27T12:48:56;10.63;;;7.30;;
23123;SDS011;11731;48.592;8.858;2024-01-27T12:51:23;11.37;;;7.13;;
23123;SDS011;11731;48.592;8.858;2024-01-27T12:57:21;7.40;;;5.03;;
23123;SDS011;11731;48.592;8.858;2024-01-27T12:59:49;8.87;;;4.53;;
23123;SDS011;11731;48.592;8.858;2024-01-27T13:02:25;8.43;;;4.50;;
23123;SDS011;11731;48.592;8.858;2024-01-27T13:15:52;7.37;;;2.90;;
23123;SDS011;11731;48.592;8.858;2024-01-27T13:27:07;3.40;;;2.77;;
23123;SDS011;11731;48.592;8.858;2024-01-27T13:38:50;6.63;;;4.70;;
23123;SDS011;11731;48.592;8.858;2024-01-27T13:41:28;5.83;;;4.00;;
23123;SDS011;11731;48.592;8.858;2024-01-27T13:47:38;7.13;;;4.33;;
23123;SDS011;11731;48.592;8.858;2024-01-27T13:59:48;6.70;;;4.30;;
23123;SDS011;11731;48.592;8.858;2024-01-27T14:05:56;6.10;;;4.30;;
23123;SDS011;11731;48.592;8.858;2024-01-27T14:12:19;5.10;;;3.77;;
23123;SDS011;11731;48.592;8.858;2024-01-27T14:14:49;5.37;;;3.80;;
23123;SDS011;11731;48.592;8.858;2024-01-27T14:17:16;6.47;;;3.40;;
23123;SDS011;11731;48.592;8.858;2024-01-27T14:19:45;10.97;;;3.93;;
23123;SDS011;11731;48.592;8.858;2024-01-27T14:22:12;4.90;;;3.80;;
23123;SDS011;11731;48.592;8.858;2024-01-27T14:24:39;10.30;;;3.83;;
23123;SDS011;11731;48.592;8.858;2024-01-27T14:27:06;7.50;;;3.77;;
23123;SDS011;11731;48.592;8.858;2024-01-27T14:29:35;6.07;;;3.73;;
23123;SDS011;11731;48.592;8.858;2024-01-27T14:32:03;6.60;;;3.83;;
23123;SDS011;11731;48.592;8.858;2024-01-27T14:34:31;7.57;;;4.20;;
23123;SDS011;11731;48.592;8.858;2024-01-27T14:36:58;7.10;;;4.30;;
23123;SDS011;11731;48.592;8.858;2024-01-27T14:39:27;6.50;;;4.60;;
23123;SDS011;11731;48.592;8.858;2024-01-27T14:41:56;8.17;;;4.23;;
23123;SDS011;11731;48.592;8.858;2024-01-27T14:44:22;7.67;;;4.33;;
23123;SDS011;11731;48.592;8.858;2024-01-27T14:46:49;8.03;;;3.90;;
23123;SDS011;11731;48.592;8.858;2024-01-27T14:49:18;7.97;;;3.93;;
23123;SDS011;11731;48.592;8.858;2024-01-27T14:51:47;8.10;;;3.90;;
23123;SDS011;11731;48.592;8.858;2024-01-27T14:54:14;6.63;;;3.40;;
23123;SDS011;11731;48.592;8.858;2024-01-27T14:56:40;6.57;;;3.63;;
23123;SDS011;11731;48.592;8.858;2024-01-27T14:59:07;7.57;;;3.13;;
23123;SDS011;11731;48.592;8.858;2024-01-27T15:01:34;5.17;;;3.40;;
23123;SDS011;11731;48.592;8.858;2024-01-27T15:04:01;9.43;;;3.30;;
23123;SDS011;11731;48.592;8.858;2024-01-27T15:06:30;5.00;;;3.23;;
23123;SDS011;11731;48.592;8.858;2024-01-27T15:08:56;5.03;;;2.93;;
23123;SDS011;11731;48.592;8.858;2024-01-27T15:11:24;6.50;;;3.63;;
23123;SDS011;11731;48.592;8.858;2024-01-27T15:13:51;6.13;;;3.63;;
23123;SDS011;11731;48.592;8.858;2024-01-27T15:16:18;5.53;;;3.80;;
23123;SDS011;11731;48.592;8.858;2024-01-27T15:18:45;7.67;;;4.13;;
23123;SDS011;11731;48.592;8.858;2024-01-27T15:21:12;7.60;;;3.90;;
23123;SDS011;11731;48.592;8.858;2024-01-27T15:23:40;6.57;;;3.93;;
23123;SDS011;11731;48.592;8.858;2024-01-27T15:26:07;13.80;;;4.80;;
23123;SDS011;11731;48.592;8.858;2024-01-27T15:28:39;6.20;;;3.77;;
23123;SDS011;11731;48.592;8.858;2024-01-27T15:31:06;7.50;;;3.93;;
23123;SDS011;11731;48.592;8.858;2024-01-27T15:33:33;8.17;;;3.47;;
23123;SDS011;11731;48.592;8.858;2024-01-27T15:36:02;5.97;;;3.50;;
23123;SDS011;11731;48.592;8.858;2024-01-27T15:38:29;6.43;;;3.30;;
23123;SDS011;11731;48.592;8.858;2024-01-27T15:40:58;5.93;;;3.30;;
23123;SDS011;11731;48.592;8.858;2024-01-27T15:43:28;7.67;;;3.47;;
23123;SDS011;11731;48.592;8.858;2024-01-27T15:46:01;5.77;;;3.30;;
23123;SDS011;11731;48.592;8.858;2024-01-27T15:48:30;5.37;;;3.30;;
23123;SDS011;11731;48.592;8.858;2024-01-27T15:50:57;5.53;;;3.27;;
23123;SDS011;11731;48.592;8.858;2024-01-27T15:53:24;7.57;;;3.47;;
23123;SDS011;11731;48.592;8.858;2024-01-27T15:55:51;10.27;;;4.07;;
23123;SDS011;11731;48.592;8.858;2024-01-27T15:58:20;4.03;;;3.43;;
23123;SDS011;11731;48.592;8.858;2024-01-27T16:00:47;7.30;;;3.90;;
23123;SDS011;11731;48.592;8.858;2024-01-27T16:03:13;9.33;;;4.30;;
23123;SDS011;11731;48.592;8.858;2024-01-27T16:05:41;8.63;;;4.37;;
23123;SDS011;11731;48.592;8.858;2024-01-27T16:08:08;7.23;;;4.40;;
23123;SDS011;11731;48.592;8.858;2024-01-27T16:10:35;6.67;;;3.70;;
23123;SDS011;11731;48.592;8.858;2024-01-27T16:13:03;5.13;;;3.10;;
23123;SDS011;11731;48.592;8.858;2024-01-27T16:15:32;5.53;;;3.97;;
23123;SDS011;11731;48.592;8.858;2024-01-27T16:18:17;7.30;;;4.87;;
23123;SDS011;11731;48.592;8.858;2024-01-27T16:20:44;8.03;;;5.20;;
23123;SDS011;11731;48.592;8.858;2024-01-27T16:23:14;8.30;;;4.83;;
23123;SDS011;11731;48.592;8.858;2024-01-27T16:25:41;11.17;;;5.17;;
23123;SDS011;11731;48.592;8.858;2024-01-27T16:28:08;9.03;;;4.20;;
23123;SDS011;11731;48.592;8.858;2024-01-27T16:30:36;8.00;;;4.60;;
23123;SDS011;11731;48.592;8.858;2024-01-27T16:33:05;9.50;;;5.10;;
23123;SDS011;11731;48.592;8.858;2024-01-27T16:35:32;12.40;;;6.07;;
23123;SDS011;11731;48.592;8.858;2024-01-27T16:37:59;10.30;;;5.53;;
23123;SDS011;11731;48.592;8.858;2024-01-27T16:40:26;8.13;;;5.10;;
23123;SDS011;11731;48.592;8.858;2024-01-27T16:42:53;6.30;;;4.40;;
23123;SDS011;11731;48.592;8.858;2024-01-27T16:45:20;10.27;;;4.73;;
23123;SDS011;11731;48.592;8.858;2024-01-27T16:47:48;8.83;;;4.83;;
23123;SDS011;11731;48.592;8.858;2024-01-27T16:50:15;8.83;;;5.47;;
23123;SDS011;11731;48.592;8.858;2024-01-27T16:52:45;9.23;;;5.43;;
23123;SDS011;11731;48.592;8.858;2024-01-27T16:55:13;10.50;;;6.10;;
23123;SDS011;11731;48.592;8.858;2024-01-27T16:57:40;14.40;;;7.10;;
23123;SDS011;11731;48.592;8.858;2024-01-27T17:00:07;10.23;;;5.80;;
23123;SDS011;11731;48.592;8.858;2024-01-27T17:02:36;8.17;;;4.97;;
23123;SDS011;11731;48.592;8.858;2024-01-27T17:05:05;7.60;;;4.80;;
23123;SDS011;11731;48.592;8.858;2024-01-27T17:07:32;9.40;;;4.97;;
23123;SDS011;11731;48.592;8.858;2024-01-27T17:09:59;5.23;;;3.80;;
23123;SDS011;11731;48.592;8.858;2024-01-27T17:12:27;11.07;;;5.07;;
23123;SDS011;11731;48.592;8.858;2024-01-27T17:14:57;6.30;;;4.23;;
23123;SDS011;11731;48.592;8.858;2024-01-27T17:17:24;7.13;;;4.27;;
23123;SDS011;11731;48.592;8.858;2024-01-27T17:19:51;10.50;;;4.87;;
23123;SDS011;11731;48.592;8.858;2024-01-27T17:22:19;9.80;;;5.10;;
23123;SDS011;11731;48.592;8.858;2024-01-27T17:24:46;7.50;;;5.20;;
23123;SDS011;11731;48.592;8.858;2024-01-27T17:27:13;9.03;;;5.20;;
23123;SDS011;11731;48.592;8.858;2024-01-27T17:29:40;10.40;;;5.03;;
23123;SDS011;11731;48.592;8.858;2024-01-27T17:32:07;6.10;;;4.30;;
23123;SDS011;11731;48.592;8.858;2024-01-27T17:34:34;8.47;;;4.60;;
23123;SDS011;11731;48.592;8.858;2024-01-27T17:37:01;12.37;;;6.33;;
23123;SDS011;11731;48.592;8.858;2024-01-27T17:39:29;10.83;;;8.03;;
23123;SDS011;11731;48.592;8.858;2024-01-27T17:41:56;22.23;;;13.30;;
23123;SDS011;11731;48.592;8.858;2024-01-27T17:44:24;15.03;;;8.93;;
23123;SDS011;11731;48.592;8.858;2024-01-27T17:46:52;14.23;;;8.27;;
23123;SDS011;11731;48.592;8.858;2024-01-27T17:49:19;11.73;;;7.57;;
23123;SDS011;11731;48.592;8.858;2024-01-27T17:51:47;8.60;;;6.40;;
23123;SDS011;11731;48.592;8.858;2024-01-27T17:54:14;13.20;;;6.70;;
23123;SDS011;11731;48.592;8.858;2024-01-27T17:56:42;17.10;;;8.70;;
23123;SDS011;11731;48.592;8.858;2024-01-27T17:59:10;11.57;;;6.83;;
23123;SDS011;11731;48.592;8.858;2024-01-27T18:01:37;15.60;;;8.83;;
23123;SDS011;11731;48.592;8.858;2024-01-27T18:04:04;15.17;;;8.90;;
23123;SDS011;11731;48.592;8.858;2024-01-27T18:06:32;15.33;;;9.00;;
23123;SDS011;11731;48.592;8.858;2024-01-27T18:08:59;18.23;;;9.40;;
23123;SDS011;11731;48.592;8.858;2024-01-27T18:11:26;11.13;;;7.73;;
23123;SDS011;11731;48.592;8.858;2024-01-27T18:13:54;15.47;;;8.50;;
23123;SDS011;11731;48.592;8.858;2024-01-27T18:16:21;18.10;;;9.50;;
23123;SDS011;11731;48.592;8.858;2024-01-27T18:18:50;18.80;;;8.93;;
23123;SDS011;11731;48.592;8.858;2024-01-27T18:21:17;13.80;;;8.47;;
23123;SDS011;11731;48.592;8.858;2024-01-27T18:23:44;36.03;;;15.83;;
23123;SDS011;11731;48.592;8.858;2024-01-27T18:26:11;20.17;;;11.00;;
23123;SDS011;11731;48.592;8.858;2024-01-27T18:28:38;13.80;;;7.03;;
23123;SDS011;11731;48.592;8.858;2024-01-27T18:31:07;15.93;;;9.50;;
23123;SDS011;11731;48.592;8.858;2024-01-27T18:33:34;18.60;;;10.40;;
23123;SDS011;11731;48.592;8.858;2024-01-27T18:36:01;14.83;;;7.30;;
23123;SDS011;11731;48.592;8.858;2024-01-27T18:38:28;16.00;;;8.17;;
23123;SDS011;11731;48.592;8.858;2024-01-27T18:40:55;9.83;;;4.77;;
23123;SDS011;11731;48.592;8.858;2024-01-27T18:43:21;11.17;;;7.30;;
23123;SDS011;11731;48.592;8.858;2024-01-27T18:45:48;19.63;;;9.73;;
23123;SDS011;11731;48.592;8.858;2024-01-27T18:48:16;16.87;;;10.10;;
23123;SDS011;11731;48.592;8.858;2024-01-27T18:50:44;21.53;;;9.70;;
23123;SDS011;11731;48.592;8.858;2024-01-27T18:53:11;22.07;;;11.43;;
23123;SDS011;11731;48.592;8.858;2024-01-27T18:55:38;19.97;;;11.20;;
23123;SDS011;11731;48.592;8.858;2024-01-27T18:58:06;14.33;;;8.30;;
23123;SDS011;11731;48.592;8.858;2024-01-27T19:00:34;15.33;;;8.63;;
23123;SDS011;11731;48.592;8.858;2024-01-27T19:03:02;14.00;;;7.80;;
23123;SDS011;11731;48.592;8.858;2024-01-27T19:05:32;15.93;;;9.57;;
23123;SDS011;11731;48.592;8.858;2024-01-27T19:07:59;20.53;;;9.10;;
23123;SDS011;11731;48.592;8.858;2024-01-27T19:10:26;14.57;;;8.97;;
23123;SDS011;11731;48.592;8.858;2024-01-27T19:12:53;13.33;;;7.67;;
23123;SDS011;11731;48.592;8.858;2024-01-27T19:15:20;15.73;;;10.27;;
23123;SDS011;11731;48.592;8.858;2024-01-27T19:17:47;19.83;;;11.97;;
23123;SDS011;11731;48.592;8.858;2024-01-27T19:20:14;16.13;;;10.37;;
23123;SDS011;11731;48.592;8.858;2024-01-27T19:22:42;12.83;;;6.97;;
23123;SDS011;11731;48.592;8.858;2024-01-27T19:25:11;11.50;;;6.80;;
23123;SDS011;11731;48.592;8.858;2024-01-27T19:27:39;11.07;;;7.33;;
23123;SDS011;11731;48.592;8.858;2024-01-27T19:30:06;18.43;;;9.33;;
23123;SDS011;11731;48.592;8.858;2024-01-27T19:32:33;14.93;;;9.03;;
23123;SDS011;11731;48.592;8.858;2024-01-27T19:35:00;14.63;;;8.63;;
23123;SDS011;11731;48.592;8.858;2024-01-27T19:37:28;18.60;;;9.70;;
23123;SDS011;11731;48.592;8.858;2024-01-27T19:39:56;11.47;;;7.13;;
23123;SDS011;11731;48.592;8.858;2024-01-27T19:42:23;12.17;;;7.87;;
23123;SDS011;11731;48.592;8.858;2024-01-27T19:44:50;10.97;;;7.37;;
23123;SDS011;11731;48.592;8.858;2024-01-27T19:47:17;15.47;;;8.33;;
23123;SDS011;11731;48.592;8.858;2024-01-27T19:49:44;12.33;;;7.20;;
23123;SDS011;11731;48.592;8.858;2024-01-27T19:52:11;16.13;;;10.43;;
23123;SDS011;11731;48.592;8.858;2024-01-27T19:54:38;19.73;;;11.13;;
23123;SDS011;11731;48.592;8.858;2024-01-27T19:57:07;17.93;;;10.03;;
23123;SDS011;11731;48.592;8.858;2024-01-27T19:59:34;17.10;;;8.87;;
23123;SDS011;11731;48.592;8.858;2024-01-27T20:02:00;12.13;;;7.90;;
23123;SDS011;11731;48.592;8.858;2024-01-27T20:04:28;9.97;;;7.30;;
23123;SDS011;11731;48.592;8.858;2024-01-27T20:06:55;14.57;;;6.43;;
23123;SDS011;11731;48.592;8.858;2024-01-27T20:09:23;13.97;;;8.77;;
23123;SDS011;11731;48.592;8.858;2024-01-27T20:11:52;12.37;;;6.97;;
23123;SDS011;11731;48.592;8.858;2024-01-27T20:14:20;10.77;;;7.50;;
23123;SDS011;11731;48.592;8.858;2024-01-27T20:16:48;14.23;;;8.90;;
23123;SDS011;11731;48.592;8.858;2024-01-27T20:19:15;14.07;;;7.80;;
23123;SDS011;11731;48.592;8.858;2024-01-27T20:21:43;8.90;;;6.33;;
23123;SDS011;11731;48.592;8.858;2024-01-27T20:24:10;8.10;;;5.37;;
23123;SDS011;11731;48.592;8.858;2024-01-27T20:26:37;11.13;;;6.43;;
23123;SDS011;11731;48.592;8.858;2024-01-27T20:29:04;8.50;;;5.90;;
23123;SDS011;11731;48.592;8.858;2024-01-27T20:31:32;10.00;;;6.80;;
23123;SDS011;11731;48.592;8.858;2024-01-27T20:34:00;12.80;;;7.00;;
23123;SDS011;11731;48.592;8.858;2024-01-27T20:36:27;14.30;;;6.50;;
23123;SDS011;11731;48.592;8.858;2024-01-27T20:38:54;15.23;;;7.63;;
23123;SDS011;11731;48.592;8.858;2024-01-27T20:41:21;13.63;;;7.67;;
23123;SDS011;11731;48.592;8.858;2024-01-27T20:43:48;12.53;;;7.13;;
23123;SDS011;11731;48.592;8.858;2024-01-27T20:46:15;12.57;;;5.77;;
23123;SDS011;11731;48.592;8.858;2024-01-27T20:48:44;14.63;;;9.17;;
23123;SDS011;11731;48.592;8.858;2024-01-27T20:51:12;11.13;;;6.40;;
23123;SDS011;11731;48.592;8.858;2024-01-27T20:53:39;12.30;;;7.17;;
23123;SDS011;11731;48.592;8.858;2024-01-27T20:56:06;15.20;;;9.67;;
23123;SDS011;11731;48.592;8.858;2024-01-27T21:01:49;11.40;;;7.20;;
23123;SDS011;11731;48.592;8.858;2024-01-27T21:07:24;23.83;;;11.13;;
23123;SDS011;11731;48.592;8.858;2024-01-27T21:09:50;19.07;;;8.40;;
23123;SDS011;11731;48.592;8.858;2024-01-27T21:12:17;16.60;;;8.53;;
23123;SDS011;11731;48.592;8.858;2024-01-27T21:14:46;44.97;;;18.10;;
23123;SDS011;11731;48.592;8.858;2024-01-27T21:17:13;26.87;;;11.47;;
23123;SDS011;11731;48.592;8.858;2024-01-27T21:26:37;14.10;;;7.10;;
23123;SDS011;11731;48.592;8.858;2024-01-27T21:29:22;18.70;;;8.30;;
23123;SDS011;11731;48.592;8.858;2024-01-27T21:44:07;9.60;;;6.57;;
23123;SDS011;11731;48.592;8.858;2024-01-27T21:46:34;11.60;;;7.13;;
23123;SDS011;11731;48.592;8.858;2024-01-27T21:49:01;13.20;;;7.03;;
23123;SDS011;11731;48.592;8.858;2024-01-27T21:51:28;13.83;;;7.83;;
23123;SDS011;11731;48.592;8.858;2024-01-27T21:53:56;15.20;;;9.80;;
23123;SDS011;11731;48.592;8.858;2024-01-27T21:56:23;14.90;;;9.60;;
23123;SDS011;11731;48.592;8.858;2024-01-27T21:58:50;17.53;;;9.30;;
23123;SDS011;11731;48.592;8.858;2024-01-27T22:01:19;16.03;;;9.60;;
23123;SDS011;11731;48.592;8.858;2024-01-27T22:03:46;11.90;;;8.27;;
23123;SDS011;11731;48.592;8.858;2024-01-27T22:06:13;14.27;;;8.50;;
23123;SDS011;11731;48.592;8.858;2024-01-27T22:12:12;13.37;;;7.30;;
23123;SDS011;11731;48.592;8.858;2024-01-27T22:14:39;15.87;;;8.37;;
23123;SDS011;11731;48.592;8.858;2024-01-27T22:17:07;13.97;;;7.80;;
23123;SDS011;11731;48.592;8.858;2024-01-27T22:19:34;14.63;;;7.83;;
23123;SDS011;11731;48.592;8.858;2024-01-27T22:22:01;11.83;;;7.47;;
23123;SDS011;11731;48.592;8.858;2024-01-27T22:24:27;13.57;;;8.10;;
23123;SDS011;11731;48.592;8.858;2024-01-27T22:26:54;15.27;;;8.57;;
23123;SDS011;11731;48.592;8.858;2024-01-27T22:29:24;12.63;;;8.20;;
23123;SDS011;11731;48.592;8.858;2024-01-27T22:31:55;14.80;;;9.73;;
23123;SDS011;11731;48.592;8.858;2024-01-27T22:34:24;14.40;;;9.83;;
23123;SDS011;11731;48.592;8.858;2024-01-27T22:36:51;13.10;;;8.47;;
23123;SDS011;11731;48.592;8.858;2024-01-27T22:39:17;13.23;;;8.47;;
23123;SDS011;11731;48.592;8.858;2024-01-27T22:41:44;15.33;;;9.60;;
23123;SDS011;11731;48.592;8.858;2024-01-27T22:44:11;19.40;;;9.60;;
23123;SDS011;11731;48.592;8.858;2024-01-27T22:46:38;13.93;;;8.70;;
23123;SDS011;11731;48.592;8.858;2024-01-27T22:49:06;16.87;;;8.70;;
23123;SDS011;11731;48.592;8.858;2024-01-27T22:51:34;103.03;;;37.17;;
23123;SDS011;11731;48.592;8.858;2024-01-27T22:54:01;19.90;;;12.07;;
23123;SDS011;11731;48.592;8.858;2024-01-27T22:56:28;24.93;;;14.40;;
23123;SDS011;11731;48.592;8.858;2024-01-27T22:58:55;14.70;;;9.23;;
23123;SDS011;11731;48.592;8.858;2024-01-27T23:01:25;22.60;;;9.90;;
23123;SDS011;11731;48.592;8.858;2024-01-27T23:03:54;23.40;;;11.43;;
23123;SDS011;11731;48.592;8.858;2024-01-27T23:06:22;25.33;;;12.53;;
23123;SDS011;11731;48.592;8.858;2024-01-27T23:12:18;18.57;;;9.53;;
23123;SDS011;11731;48.592;8.858;2024-01-27T23:24:17;14.40;;;8.20;;
23123;SDS011;11731;48.592;8.858;2024-01-27T23:27:06;16.87;;;8.87;;
23123;SDS011;11731;48.592;8.858;2024-01-27T23:35:57;15.50;;;8.77;;
23123;SDS011;11731;48.592;8.858;2024-01-27T23:38:24;14.37;;;7.87;;
23123;SDS011;11731;48.592;8.858;2024-01-27T23:40:52;12.87;;;7.70;;
23123;SDS011;11731;48.592;8.858;2024-01-27T23:43:19;15.10;;;8.00;;
23123;SDS011;11731;48.592;8.858;2024-01-27T23:45:47;13.47;;;6.77;;
23123;SDS011;11731;48.592;8.858;2024-01-27T23:48:14;12.13;;;7.57;;
23123;SDS011;11731;48.592;8.858;2024-01-27T23:50:41;12.97;;;8.30;;